Terminal Aerodrome Forecast
Issued by NWS Charleston, WV

Home | Current Version | Previous Version | Text Only | Print | Product List | Glossary On
Versions: 1 2 3 4 5 6 7 8 9 10 11 12 13 14 15 16 17 18 19 20 21 22
243
FTUS41 KRLX 271737
TAFPKB
TAF
KPKB 271737Z 2718/2818 VRB15G25KT 2SM TSRA OVC030CB
     FM271830 23005KT 4SM SHRA VCTS OVC035CB
     FM272100 VRB03KT 2SM TSRA OVC023CB
     FM280000 VRB03KT 6SM SHRA VCTS OVC030CB
     FM280700 VRB02KT 4SM BR OVC009
     FM280800 VRB02KT 3SM BR OVC005
     FM281200 VRB03KT 6SM SHRA OVC008
     FM281700 04004KT 6SM -SHRA VCTS BKN014CB=

USA.gov is the U.S. government's official web portal to all federal, state and local government web resources and services.